sensor_id;sensor_type;location;lat;lon;timestamp;pressure;altitude;pressure_sealevel;temperature;humidity
65394;BME280;52002;49.760;6.512;2024-03-23T00:55:49;99270.46;;;9.40;74.76
65394;BME280;52002;49.760;6.512;2024-03-23T00:58:14;99270.36;;;9.43;74.91
65394;BME280;52002;49.760;6.512;2024-03-23T01:00:40;99275.48;;;9.47;75.18
65394;BME280;52002;49.760;6.512;2024-03-23T01:03:05;99272.65;;;9.49;74.88
65394;BME280;52002;49.760;6.512;2024-03-23T01:05:30;99262.48;;;9.53;75.03
65394;BME280;52002;49.760;6.512;2024-03-23T01:07:56;99264.02;;;9.56;75.28
65394;BME280;52002;49.760;6.512;2024-03-23T01:10:21;99265.08;;;9.61;75.34
65394;BME280;52002;49.760;6.512;2024-03-23T01:12:47;99257.83;;;9.63;75.07
65394;BME280;52002;49.760;6.512;2024-03-23T01:15:12;99262.90;;;9.63;75.13
65394;BME280;52002;49.760;6.512;2024-03-23T01:17:38;99276.39;;;9.64;75.14
65394;BME280;52002;49.760;6.512;2024-03-23T01:20:03;99269.59;;;9.64;75.49
65394;BME280;52002;49.760;6.512;2024-03-23T01:22:29;99244.54;;;9.64;75.35
65394;BME280;52002;49.760;6.512;2024-03-23T01:24:55;99243.04;;;9.61;75.51
65394;BME280;52002;49.760;6.512;2024-03-23T01:27:20;99240.89;;;9.60;75.81
65394;BME280;52002;49.760;6.512;2024-03-23T01:29:45;99233.77;;;9.58;76.31
65394;BME280;52002;49.760;6.512;2024-03-23T01:32:11;99227.27;;;9.59;76.36
65394;BME280;52002;49.760;6.512;2024-03-23T01:34:36;99220.11;;;9.61;76.61
65394;BME280;52002;49.760;6.512;2024-03-23T01:37:02;99221.29;;;9.64;76.88
65394;BME280;52002;49.760;6.512;2024-03-23T01:39:27;99221.23;;;9.70;77.28
65394;BME280;52002;49.760;6.512;2024-03-23T01:41:53;99220.96;;;9.74;77.19
65394;BME280;52002;49.760;6.512;2024-03-23T01:44:18;99220.07;;;9.78;77.31
65394;BME280;52002;49.760;6.512;2024-03-23T01:46:44;99221.95;;;9.82;77.11
65394;BME280;52002;49.760;6.512;2024-03-23T01:49:10;99218.28;;;9.85;77.04
65394;BME280;52002;49.760;6.512;2024-03-23T01:51:36;99221.27;;;9.88;77.28
65394;BME280;52002;49.760;6.512;2024-03-23T01:54:02;99224.12;;;9.90;77.43
65394;BME280;52002;49.760;6.512;2024-03-23T01:56:30;99222.00;;;9.91;77.51
65394;BME280;52002;49.760;6.512;2024-03-23T01:58:58;99214.54;;;9.95;77.63
65394;BME280;52002;49.760;6.512;2024-03-23T02:01:23;99217.60;;;9.98;77.80
65394;BME280;52002;49.760;6.512;2024-03-23T02:03:48;99235.17;;;10.00;77.75
65394;BME280;52002;49.760;6.512;2024-03-23T02:06:14;99244.83;;;10.01;77.95
65394;BME280;52002;49.760;6.512;2024-03-23T02:08:40;99269.27;;;10.02;77.63
65394;BME280;52002;49.760;6.512;2024-03-23T02:11:05;99268.00;;;9.99;77.07
65394;BME280;52002;49.760;6.512;2024-03-23T02:13:31;99272.23;;;9.96;76.64
65394;BME280;52002;49.760;6.512;2024-03-23T02:15:57;99280.52;;;9.87;76.04
65394;BME280;52002;49.760;6.512;2024-03-23T02:18:22;99265.06;;;9.76;75.40
65394;BME280;52002;49.760;6.512;2024-03-23T02:20:48;99261.99;;;9.69;75.55
65394;BME280;52002;49.760;6.512;2024-03-23T02:23:16;99265.27;;;9.65;75.60
65394;BME280;52002;49.760;6.512;2024-03-23T02:25:44;99277.70;;;9.61;75.69
65394;BME280;52002;49.760;6.512;2024-03-23T02:28:10;99289.36;;;9.56;75.51
65394;BME280;52002;49.760;6.512;2024-03-23T02:30:36;99285.00;;;9.51;75.56
65394;BME280;52002;49.760;6.512;2024-03-23T02:33:01;99279.25;;;9.45;75.22
65394;BME280;52002;49.760;6.512;2024-03-23T02:35:27;99262.60;;;9.42;75.66
65394;BME280;52002;49.760;6.512;2024-03-23T02:37:52;99248.11;;;9.40;75.50
65394;BME280;52002;49.760;6.512;2024-03-23T02:40:19;99248.53;;;9.35;75.40
65394;BME280;52002;49.760;6.512;2024-03-23T02:42:45;99278.97;;;9.33;75.73
65394;BME280;52002;49.760;6.512;2024-03-23T02:45:11;99289.89;;;9.28;75.75
65394;BME280;52002;49.760;6.512;2024-03-23T02:47:36;99291.78;;;9.23;76.16
65394;BME280;52002;49.760;6.512;2024-03-23T02:50:02;99298.54;;;9.19;76.28
65394;BME280;52002;49.760;6.512;2024-03-23T02:52:27;99308.49;;;9.17;75.98
65394;BME280;52002;49.760;6.512;2024-03-23T02:54:53;99308.81;;;9.14;76.31
65394;BME280;52002;49.760;6.512;2024-03-23T02:57:18;99316.89;;;9.13;76.45
65394;BME280;52002;49.760;6.512;2024-03-23T02:59:43;99321.39;;;9.08;76.45
65394;BME280;52002;49.760;6.512;2024-03-23T03:02:09;99324.11;;;9.06;76.25
65394;BME280;52002;49.760;6.512;2024-03-23T03:04:34;99319.35;;;9.04;76.24
65394;BME280;52002;49.760;6.512;2024-03-23T03:07:00;99320.55;;;9.00;75.88
65394;BME280;52002;49.760;6.512;2024-03-23T03:09:26;99320.81;;;8.99;76.28
65394;BME280;52002;49.760;6.512;2024-03-23T03:11:51;99325.96;;;9.01;76.52
65394;BME280;52002;49.760;6.512;2024-03-23T03:14:16;99333.55;;;9.03;76.89
65394;BME280;52002;49.760;6.512;2024-03-23T03:16:42;99331.45;;;9.03;76.62
65394;BME280;52002;49.760;6.512;2024-03-23T03:19:08;99327.95;;;9.01;76.29
65394;BME280;52002;49.760;6.512;2024-03-23T03:21:34;99323.70;;;9.01;76.43
65394;BME280;52002;49.760;6.512;2024-03-23T03:24:00;99320.61;;;9.01;76.31
65394;BME280;52002;49.760;6.512;2024-03-23T03:26:25;99331.14;;;9.01;76.37
65394;BME280;52002;49.760;6.512;2024-03-23T03:28:50;99337.88;;;8.97;75.95
65394;BME280;52002;49.760;6.512;2024-03-23T03:31:16;99340.31;;;8.91;76.19
65394;BME280;52002;49.760;6.512;2024-03-23T03:33:42;99350.84;;;8.89;76.39
65394;BME280;52002;49.760;6.512;2024-03-23T03:36:08;99351.91;;;8.85;76.59
65394;BME280;52002;49.760;6.512;2024-03-23T03:38:34;99358.35;;;8.80;76.25
65394;BME280;52002;49.760;6.512;2024-03-23T03:41:02;99356.89;;;8.77;76.21
65394;BME280;52002;49.760;6.512;2024-03-23T03:43:28;99349.70;;;8.76;76.61
65394;BME280;52002;49.760;6.512;2024-03-23T03:45:56;99342.92;;;8.73;76.58
65394;BME280;52002;49.760;6.512;2024-03-23T03:48:22;99358.80;;;8.74;76.65
65394;BME280;52002;49.760;6.512;2024-03-23T03:50:47;99358.80;;;8.74;76.58
65394;BME280;52002;49.760;6.512;2024-03-23T03:53:13;99358.84;;;8.70;76.74
65394;BME280;52002;49.760;6.512;2024-03-23T03:55:38;99347.13;;;8.70;76.79
65394;BME280;52002;49.760;6.512;2024-03-23T03:58:04;99352.16;;;8.73;76.70
65394;BME280;52002;49.760;6.512;2024-03-23T04:00:32;99356.36;;;8.75;76.73
65394;BME280;52002;49.760;6.512;2024-03-23T04:02:57;99357.59;;;8.75;75.92
65394;BME280;52002;49.760;6.512;2024-03-23T04:05:23;99352.20;;;8.74;75.45
65394;BME280;52002;49.760;6.512;2024-03-23T04:07:49;99364.36;;;8.71;74.98
65394;BME280;52002;49.760;6.512;2024-03-23T04:10:14;99379.74;;;8.68;75.07
65394;BME280;52002;49.760;6.512;2024-03-23T04:12:41;99382.00;;;8.62;75.16
65394;BME280;52002;49.760;6.512;2024-03-23T04:15:07;99384.21;;;8.59;74.70
65394;BME280;52002;49.760;6.512;2024-03-23T04:17:33;99394.01;;;8.55;74.26
65394;BME280;52002;49.760;6.512;2024-03-23T04:20:00;99400.07;;;8.53;74.58
65394;BME280;52002;49.760;6.512;2024-03-23T04:22:26;99401.71;;;8.50;74.60
65394;BME280;52002;49.760;6.512;2024-03-23T04:24:56;99396.90;;;8.49;74.57
65394;BME280;52002;49.760;6.512;2024-03-23T04:27:22;99400.91;;;8.43;74.25
65394;BME280;52002;49.760;6.512;2024-03-23T04:29:52;99405.89;;;8.41;74.15
65394;BME280;52002;49.760;6.512;2024-03-23T04:32:20;99408.99;;;8.40;74.26
65394;BME280;52002;49.760;6.512;2024-03-23T04:34:46;99409.41;;;8.35;73.47
65394;BME280;52002;49.760;6.512;2024-03-23T04:37:11;99413.43;;;8.28;73.57
65394;BME280;52002;49.760;6.512;2024-03-23T04:39:37;99420.91;;;8.23;73.51
65394;BME280;52002;49.760;6.512;2024-03-23T04:42:04;99429.55;;;8.20;74.05
65394;BME280;52002;49.760;6.512;2024-03-23T04:44:30;99438.44;;;8.17;74.35
65394;BME280;52002;49.760;6.512;2024-03-23T04:46:56;99435.73;;;8.18;74.23
65394;BME280;52002;49.760;6.512;2024-03-23T04:49:22;99429.71;;;8.14;74.41
65394;BME280;52002;49.760;6.512;2024-03-23T04:51:47;99429.68;;;8.14;74.54
65394;BME280;52002;49.760;6.512;2024-03-23T04:54:13;99431.63;;;8.12;74.41
65394;BME280;52002;49.760;6.512;2024-03-23T04:56:38;99434.98;;;8.10;74.08
65394;BME280;52002;49.760;6.512;2024-03-23T04:59:04;99428.36;;;8.07;74.41
65394;BME280;52002;49.760;6.512;2024-03-23T05:01:31;99423.08;;;8.07;74.16
65394;BME280;52002;49.760;6.512;2024-03-23T05:03:57;99420.86;;;8.08;74.03
65394;BME280;52002;49.760;6.512;2024-03-23T05:06:23;99426.48;;;8.09;74.31
65394;BME280;52002;49.760;6.512;2024-03-23T05:08:49;99440.25;;;8.11;74.33
65394;BME280;52002;49.760;6.512;2024-03-23T05:11:14;99448.42;;;8.11;74.03
65394;BME280;52002;49.760;6.512;2024-03-23T05:13:41;99456.73;;;8.09;73.93
65394;BME280;52002;49.760;6.512;2024-03-23T05:16:07;99454.39;;;8.07;74.01
65394;BME280;52002;49.760;6.512;2024-03-23T05:18:34;99457.43;;;8.04;73.78
65394;BME280;52002;49.760;6.512;2024-03-23T05:20:59;99465.93;;;8.04;73.92
65394;BME280;52002;49.760;6.512;2024-03-23T05:23:25;99470.04;;;8.04;73.86
65394;BME280;52002;49.760;6.512;2024-03-23T05:25:51;99472.02;;;8.03;74.03
65394;BME280;52002;49.760;6.512;2024-03-23T05:28:18;99477.44;;;8.05;74.02
65394;BME280;52002;49.760;6.512;2024-03-23T05:30:43;99483.58;;;8.06;73.88
65394;BME280;52002;49.760;6.512;2024-03-23T05:33:09;99487.87;;;8.03;73.50
65394;BME280;52002;49.760;6.512;2024-03-23T05:35:34;99497.73;;;7.98;73.24
65394;BME280;52002;49.760;6.512;2024-03-23T05:38:00;99495.84;;;7.93;73.84
65394;BME280;52002;49.760;6.512;2024-03-23T05:40:28;99495.80;;;7.91;73.49
65394;BME280;52002;49.760;6.512;2024-03-23T05:42:54;99492.39;;;7.81;72.73
65394;BME280;52002;49.760;6.512;2024-03-23T05:45:21;99494.16;;;7.75;72.53
65394;BME280;52002;49.760;6.512;2024-03-23T05:47:48;99504.23;;;7.69;72.94
65394;BME280;52002;49.760;6.512;2024-03-23T05:50:14;99505.58;;;7.61;72.75
65394;BME280;52002;49.760;6.512;2024-03-23T05:52:39;99502.27;;;7.58;73.05
65394;BME280;52002;49.760;6.512;2024-03-23T05:55:06;99509.77;;;7.56;73.25
65394;BME280;52002;49.760;6.512;2024-03-23T05:57:31;99505.48;;;7.50;73.42
65394;BME280;52002;49.760;6.512;2024-03-23T05:59:57;99514.37;;;7.50;73.58
65394;BME280;52002;49.760;6.512;2024-03-23T06:02:23;99527.62;;;7.54;73.95
65394;BME280;52002;49.760;6.512;2024-03-23T06:04:48;99538.55;;;7.65;73.95
65394;BME280;52002;49.760;6.512;2024-03-23T06:07:14;99540.77;;;7.81;73.89
65394;BME280;52002;49.760;6.512;2024-03-23T06:09:43;99539.60;;;8.03;73.47
65394;BME280;52002;49.760;6.512;2024-03-23T06:12:08;99536.23;;;8.20;73.10
65394;BME280;52002;49.760;6.512;2024-03-23T06:14:34;99537.23;;;8.31;73.34
65394;BME280;52002;49.760;6.512;2024-03-23T06:17:00;99539.49;;;8.42;72.59
65394;BME280;52002;49.760;6.512;2024-03-23T06:19:27;99544.80;;;8.55;72.38
65394;BME280;52002;49.760;6.512;2024-03-23T06:21:53;99546.81;;;8.60;71.96
65394;BME280;52002;49.760;6.512;2024-03-23T06:24:21;99541.79;;;8.59;71.48
65394;BME280;52002;49.760;6.512;2024-03-23T06:26:46;99543.23;;;8.56;71.55
65394;BME280;52002;49.760;6.512;2024-03-23T06:29:12;99553.77;;;8.57;71.95
65394;BME280;52002;49.760;6.512;2024-03-23T06:31:37;99562.58;;;8.58;72.09
65394;BME280;52002;49.760;6.512;2024-03-23T06:34:03;99565.98;;;8.62;72.00
65394;BME280;52002;49.760;6.512;2024-03-23T06:36:28;99572.44;;;8.68;72.02
65394;BME280;52002;49.760;6.512;2024-03-23T06:38:55;99577.05;;;8.72;71.81
65394;BME280;52002;49.760;6.512;2024-03-23T06:41:21;99581.12;;;8.74;71.98
65394;BME280;52002;49.760;6.512;2024-03-23T06:43:46;99587.31;;;8.78;71.88
65394;BME280;52002;49.760;6.512;2024-03-23T06:46:12;99584.84;;;8.82;71.38
65394;BME280;52002;49.760;6.512;2024-03-23T06:48:37;99583.98;;;8.79;71.31
65394;BME280;52002;49.760;6.512;2024-03-23T06:51:03;99584.28;;;8.76;71.33
65394;BME280;52002;49.760;6.512;2024-03-23T06:53:29;99574.33;;;8.90;71.44
65394;BME280;52002;49.760;6.512;2024-03-23T06:55:54;99584.49;;;9.20;71.33
65394;BME280;52002;49.760;6.512;2024-03-23T06:58:22;99589.45;;;9.50;70.33
65394;BME280;52002;49.760;6.512;2024-03-23T07:00:47;99596.09;;;9.65;69.72
65394;BME280;52002;49.760;6.512;2024-03-23T07:03:13;99596.61;;;9.67;69.43
65394;BME280;52002;49.760;6.512;2024-03-23T07:05:39;99606.63;;;9.72;69.62
65394;BME280;52002;49.760;6.512;2024-03-23T07:08:05;99600.55;;;9.80;69.75
65394;BME280;52002;49.760;6.512;2024-03-23T07:10:30;99609.91;;;9.95;69.68
65394;BME280;52002;49.760;6.512;2024-03-23T07:12:56;99605.14;;;10.08;69.15
65394;BME280;52002;49.760;6.512;2024-03-23T07:15:21;99599.37;;;10.20;69.02
65394;BME280;52002;49.760;6.512;2024-03-23T07:17:47;99603.61;;;10.17;68.40
65394;BME280;52002;49.760;6.512;2024-03-23T07:20:13;99603.27;;;10.09;68.58
65394;BME280;52002;49.760;6.512;2024-03-23T07:22:39;99605.41;;;10.03;68.63
65394;BME280;52002;49.760;6.512;2024-03-23T07:25:05;99605.01;;;9.98;68.58
65394;BME280;52002;49.760;6.512;2024-03-23T07:27:32;99605.52;;;9.92;68.66
65394;BME280;52002;49.760;6.512;2024-03-23T07:29:57;99608.92;;;9.94;68.76
65394;BME280;52002;49.760;6.512;2024-03-23T07:32:22;99615.38;;;9.99;68.53
65394;BME280;52002;49.760;6.512;2024-03-23T07:34:48;99621.09;;;10.08;68.05
65394;BME280;52002;49.760;6.512;2024-03-23T07:37:13;99623.77;;;10.16;67.76
65394;BME280;52002;49.760;6.512;2024-03-23T07:39:39;99628.67;;;10.25;67.83
65394;BME280;52002;49.760;6.512;2024-03-23T07:42:06;99629.02;;;10.40;67.50
65394;BME280;52002;49.760;6.512;2024-03-23T07:44:31;99630.73;;;10.58;67.00
65394;BME280;52002;49.760;6.512;2024-03-23T07:46:57;99627.45;;;11.05;66.19
65394;BME280;52002;49.760;6.512;2024-03-23T07:49:22;99630.48;;;11.79;65.25
65394;BME280;52002;49.760;6.512;2024-03-23T07:51:47;99631.04;;;12.46;64.15
65394;BME280;52002;49.760;6.512;2024-03-23T07:54:13;99625.22;;;13.14;63.95
65394;BME280;52002;49.760;6.512;2024-03-23T07:56:38;99624.08;;;15.03;61.61
65394;BME280;52002;49.760;6.512;2024-03-23T07:59:03;99623.52;;;16.08;59.11
65394;BME280;52002;49.760;6.512;2024-03-23T08:01:29;99620.40;;;16.08;58.50
65394;BME280;52002;49.760;6.512;2024-03-23T08:03:55;99620.25;;;15.99;58.21
65394;BME280;52002;49.760;6.512;2024-03-23T08:06:21;99623.73;;;15.86;57.76
65394;BME280;52002;49.760;6.512;2024-03-23T08:08:52;99627.21;;;15.68;57.17
65394;BME280;52002;49.760;6.512;2024-03-23T08:11:28;99627.23;;;15.51;56.93
65394;BME280;52002;49.760;6.512;2024-03-23T08:13:54;99634.91;;;15.34;56.70
65394;BME280;52002;49.760;6.512;2024-03-23T08:16:20;99636.30;;;15.11;56.26
65394;BME280;52002;49.760;6.512;2024-03-23T08:18:46;99635.39;;;14.90;56.28
65394;BME280;52002;49.760;6.512;2024-03-23T08:21:11;99639.67;;;14.79;55.99
65394;BME280;52002;49.760;6.512;2024-03-23T08:23:37;99642.41;;;14.80;56.10
65394;BME280;52002;49.760;6.512;2024-03-23T08:26:08;99641.71;;;14.59;55.96
65394;BME280;52002;49.760;6.512;2024-03-23T08:28:34;99645.66;;;14.20;55.92
65394;BME280;52002;49.760;6.512;2024-03-23T08:31:05;99653.05;;;13.93;56.12
65394;BME280;52002;49.760;6.512;2024-03-23T08:33:31;99653.27;;;13.72;55.82
65394;BME280;52002;49.760;6.512;2024-03-23T08:35:58;99652.30;;;13.36;55.90
65394;BME280;52002;49.760;6.512;2024-03-23T08:38:24;99651.02;;;13.07;56.21
65394;BME280;52002;49.760;6.512;2024-03-23T08:40:57;99655.85;;;12.86;56.62
65394;BME280;52002;49.760;6.512;2024-03-23T08:43:23;99652.73;;;12.75;56.63
65394;BME280;52002;49.760;6.512;2024-03-23T08:45:48;99657.98;;;12.52;56.56
65394;BME280;52002;49.760;6.512;2024-03-23T08:48:14;99656.38;;;12.21;56.44
65394;BME280;52002;49.760;6.512;2024-03-23T08:50:39;99649.16;;;12.03;56.83
65394;BME280;52002;49.760;6.512;2024-03-23T08:53:04;99650.05;;;11.94;57.53
65394;BME280;52002;49.760;6.512;2024-03-23T08:55:30;99654.39;;;12.04;57.43
65394;BME280;52002;49.760;6.512;2024-03-23T08:57:55;99654.45;;;12.19;57.29
65394;BME280;52002;49.760;6.512;2024-03-23T09:00:21;99652.61;;;12.27;57.01
65394;BME280;52002;49.760;6.512;2024-03-23T09:02:47;99651.80;;;12.22;57.06
65394;BME280;52002;49.760;6.512;2024-03-23T09:05:13;99660.83;;;12.18;56.48
65394;BME280;52002;49.760;6.512;2024-03-23T09:07:38;99656.75;;;12.23;56.56
65394;BME280;52002;49.760;6.512;2024-03-23T09:10:04;99653.63;;;12.45;56.35
65394;BME280;52002;49.760;6.512;2024-03-23T09:12:30;99653.05;;;12.72;56.17
65394;BME280;52002;49.760;6.512;2024-03-23T09:14:55;99652.42;;;12.83;55.46
65394;BME280;52002;49.760;6.512;2024-03-23T09:17:21;99653.83;;;12.97;55.55
65394;BME280;52002;49.760;6.512;2024-03-23T09:19:46;99650.17;;;13.10;54.60
65394;BME280;52002;49.760;6.512;2024-03-23T09:22:11;99643.05;;;12.96;54.48
65394;BME280;52002;49.760;6.512;2024-03-23T09:24:38;99650.54;;;12.80;55.26
65394;BME280;52002;49.760;6.512;2024-03-23T09:27:04;99650.73;;;12.73;54.99
65394;BME280;52002;49.760;6.512;2024-03-23T09:29:29;99654.14;;;12.65;54.74
65394;BME280;52002;49.760;6.512;2024-03-23T09:31:55;99649.70;;;12.72;55.23
65394;BME280;52002;49.760;6.512;2024-03-23T09:34:20;99642.45;;;12.76;55.09
65394;BME280;52002;49.760;6.512;2024-03-23T09:36:47;99652.11;;;12.71;54.98
65394;BME280;52002;49.760;6.512;2024-03-23T09:39:12;99648.09;;;12.59;55.01
65394;BME280;52002;49.760;6.512;2024-03-23T09:41:39;99639.75;;;12.41;55.31
65394;BME280;52002;49.760;6.512;2024-03-23T09:44:05;99641.02;;;12.32;54.88
65394;BME280;52002;49.760;6.512;2024-03-23T09:46:31;99640.02;;;12.30;53.90
65394;BME280;52002;49.760;6.512;2024-03-23T09:49:00;99635.34;;;12.32;53.90
65394;BME280;52002;49.760;6.512;2024-03-23T09:51:25;99627.30;;;12.34;53.99
65394;BME280;52002;49.760;6.512;2024-03-23T09:53:51;99625.73;;;12.32;53.73
65394;BME280;52002;49.760;6.512;2024-03-23T09:56:17;99623.49;;;12.36;54.34
65394;BME280;52002;49.760;6.512;2024-03-23T09:58:43;99622.05;;;12.42;54.60
65394;BME280;52002;49.760;6.512;2024-03-23T10:01:09;99623.44;;;12.51;54.59
65394;BME280;52002;49.760;6.512;2024-03-23T10:03:44;99612.98;;;12.66;54.25
65394;BME280;52002;49.760;6.512;2024-03-23T10:06:10;99608.08;;;12.79;53.31
65394;BME280;52002;49.760;6.512;2024-03-23T10:08:36;99603.13;;;12.80;53.27
65394;BME280;52002;49.760;6.512;2024-03-23T10:11:15;99599.19;;;12.73;52.92
65394;BME280;52002;49.760;6.512;2024-03-23T10:13:44;99604.33;;;12.63;53.29
65394;BME280;52002;49.760;6.512;2024-03-23T10:16:12;99601.59;;;12.64;53.17
65394;BME280;52002;49.760;6.512;2024-03-23T10:18:45;99595.20;;;12.68;52.57
65394;BME280;52002;49.760;6.512;2024-03-23T10:21:11;99594.56;;;12.74;51.92
65394;BME280;52002;49.760;6.512;2024-03-23T10:23:41;99591.45;;;12.75;51.59
65394;BME280;52002;49.760;6.512;2024-03-23T10:26:23;99592.71;;;12.82;51.57
65394;BME280;52002;49.760;6.512;2024-03-23T10:28:56;99582.16;;;12.89;51.01
65394;BME280;52002;49.760;6.512;2024-03-23T10:31:33;99589.07;;;12.97;51.05
65394;BME280;52002;49.760;6.512;2024-03-23T10:34:02;99604.95;;;12.91;50.79
65394;BME280;52002;49.760;6.512;2024-03-23T10:36:29;99600.50;;;12.76;50.40
65394;BME280;52002;49.760;6.512;2024-03-23T10:38:56;99613.55;;;12.65;50.88
65394;BME280;52002;49.760;6.512;2024-03-23T10:41:26;99642.36;;;12.42;50.60
65394;BME280;52002;49.760;6.512;2024-03-23T10:43:53;99665.85;;;12.07;50.69
65394;BME280;52002;49.760;6.512;2024-03-23T10:46:21;99696.41;;;11.63;51.65
65394;BME280;52002;49.760;6.512;2024-03-23T10:48:47;99707.35;;;11.21;53.55
65394;BME280;52002;49.760;6.512;2024-03-23T10:51:14;99717.08;;;10.84;55.01
65394;BME280;52002;49.760;6.512;2024-03-23T10:53:39;99714.67;;;10.43;56.37
65394;BME280;52002;49.760;6.512;2024-03-23T10:56:06;99708.02;;;10.23;57.32
65394;BME280;52002;49.760;6.512;2024-03-23T10:58:37;99700.95;;;10.20;58.06
65394;BME280;52002;49.760;6.512;2024-03-23T11:01:03;99700.80;;;10.31;58.57
65394;BME280;52002;49.760;6.512;2024-03-23T11:05:59;99699.70;;;10.80;58.82
65394;BME280;52002;49.760;6.512;2024-03-23T11:08:39;99691.54;;;10.96;58.68
65394;BME280;52002;49.760;6.512;2024-03-23T11:13:42;99684.40;;;11.45;59.19
65394;BME280;52002;49.760;6.512;2024-03-23T11:16:22;99688.40;;;11.53;59.09
65394;BME280;52002;49.760;6.512;2024-03-23T11:18:48;99686.88;;;11.65;58.98
65394;BME280;52002;49.760;6.512;2024-03-23T11:21:52;99695.48;;;11.79;59.09
65394;BME280;52002;49.760;6.512;2024-03-23T11:24:21;99678.54;;;11.87;58.84
65394;BME280;52002;49.760;6.512;2024-03-23T11:26:48;99673.20;;;11.85;58.81
65394;BME280;52002;49.760;6.512;2024-03-23T11:29:15;99663.08;;;11.76;59.09
65394;BME280;52002;49.760;6.512;2024-03-23T11:31:48;99660.70;;;11.67;58.89
65394;BME280;52002;49.760;6.512;2024-03-23T11:34:15;99659.05;;;11.62;59.00
65394;BME280;52002;49.760;6.512;2024-03-23T11:36:45;99664.80;;;11.52;58.94
65394;BME280;52002;49.760;6.512;2024-03-23T11:39:18;99659.73;;;11.48;58.63
65394;BME280;52002;49.760;6.512;2024-03-23T11:41:55;99654.73;;;11.51;58.27
65394;BME280;52002;49.760;6.512;2024-03-23T11:44:27;99649.70;;;11.57;58.31
65394;BME280;52002;49.760;6.512;2024-03-23T11:46:53;99638.73;;;11.55;57.67
65394;BME280;52002;49.760;6.512;2024-03-23T11:49:25;99636.80;;;11.56;57.56
65394;BME280;52002;49.760;6.512;2024-03-23T11:51:52;99627.48;;;11.60;57.57
65394;BME280;52002;49.760;6.512;2024-03-23T11:54:23;99621.18;;;11.66;57.19
65394;BME280;52002;49.760;6.512;2024-03-23T11:56:58;99623.29;;;11.63;57.52
65394;BME280;52002;49.760;6.512;2024-03-23T12:02:06;99614.21;;;11.85;56.32
65394;BME280;52002;49.760;6.512;2024-03-23T12:04:31;99614.94;;;11.79;55.31
65394;BME280;52002;49.760;6.512;2024-03-23T12:07:29;99605.46;;;11.68;55.59
65394;BME280;52002;49.760;6.512;2024-03-23T12:10:04;99597.17;;;11.86;55.76
65394;BME280;52002;49.760;6.512;2024-03-23T12:12:31;99590.79;;;12.05;54.97
65394;BME280;52002;49.760;6.512;2024-03-23T12:15:07;99588.02;;;12.32;54.94
65394;BME280;52002;49.760;6.512;2024-03-23T12:17:34;99578.04;;;12.62;54.16
65394;BME280;52002;49.760;6.512;2024-03-23T12:20:00;99589.86;;;12.73;53.13
65394;BME280;52002;49.760;6.512;2024-03-23T12:22:26;99580.66;;;12.78;52.47
65394;BME280;52002;49.760;6.512;2024-03-23T12:24:52;99602.73;;;12.82;52.35
65394;BME280;52002;49.760;6.512;2024-03-23T12:27:18;99634.30;;;12.80;51.86
65394;BME280;52002;49.760;6.512;2024-03-23T12:29:44;99614.23;;;12.62;50.72
65394;BME280;52002;49.760;6.512;2024-03-23T12:32:14;99580.69;;;12.36;50.02
65394;BME280;52002;49.760;6.512;2024-03-23T12:34:39;99574.04;;;12.21;49.95
65394;BME280;52002;49.760;6.512;2024-03-23T12:37:05;99571.16;;;12.10;50.04
65394;BME280;52002;49.760;6.512;2024-03-23T12:39:34;99560.09;;;12.05;50.32
65394;BME280;52002;49.760;6.512;2024-03-23T12:42:01;99563.01;;;12.01;50.47
65394;BME280;52002;49.760;6.512;2024-03-23T12:44:28;99562.64;;;11.94;50.89
65394;BME280;52002;49.760;6.512;2024-03-23T12:46:54;99558.09;;;11.86;50.85
65394;BME280;52002;49.760;6.512;2024-03-23T12:49:19;99558.27;;;11.73;50.80
65394;BME280;52002;49.760;6.512;2024-03-23T12:51:54;99560.42;;;11.62;50.82
65394;BME280;52002;49.760;6.512;2024-03-23T12:54:24;99560.80;;;11.55;51.39
65394;BME280;52002;49.760;6.512;2024-03-23T12:56:50;99555.46;;;11.50;52.12
65394;BME280;52002;49.760;6.512;2024-03-23T12:59:15;99552.02;;;11.43;52.45
65394;BME280;52002;49.760;6.512;2024-03-23T13:01:42;99555.36;;;11.38;52.81
65394;BME280;52002;49.760;6.512;2024-03-23T13:04:08;99558.18;;;11.36;53.03
65394;BME280;52002;49.760;6.512;2024-03-23T13:06:34;99559.25;;;11.36;53.35
65394;BME280;52002;49.760;6.512;2024-03-23T13:09:03;99559.18;;;11.32;53.55
65394;BME280;52002;49.760;6.512;2024-03-23T13:11:29;99560.56;;;11.23;53.66
65394;BME280;52002;49.760;6.512;2024-03-23T13:13:55;99561.98;;;11.18;53.72
65394;BME280;52002;49.760;6.512;2024-03-23T13:16:20;99561.80;;;11.20;53.63
65394;BME280;52002;49.760;6.512;2024-03-23T13:18:45;99560.08;;;11.21;53.14
65394;BME280;52002;49.760;6.512;2024-03-23T13:21:11;99563.56;;;11.16;53.38
65394;BME280;52002;49.760;6.512;2024-03-23T13:23:36;99567.43;;;11.13;53.34
65394;BME280;52002;49.760;6.512;2024-03-23T13:26:03;99565.52;;;11.24;53.54
65394;BME280;52002;49.760;6.512;2024-03-23T13:28:30;99576.60;;;11.63;53.09
65394;BME280;52002;49.760;6.512;2024-03-23T13:30:56;99582.23;;;11.81;52.84
65394;BME280;52002;49.760;6.512;2024-03-23T13:33:29;99595.22;;;11.67;53.44
65394;BME280;52002;49.760;6.512;2024-03-23T13:35:57;99610.51;;;11.48;54.43
65394;BME280;52002;49.760;6.512;2024-03-23T13:38:24;99605.95;;;11.53;54.81
65394;BME280;52002;49.760;6.512;2024-03-23T13:40:53;99595.08;;;11.80;55.00
65394;BME280;52002;49.760;6.512;2024-03-23T13:43:19;99578.81;;;11.91;53.60
65394;BME280;52002;49.760;6.512;2024-03-23T13:45:49;99572.73;;;11.80;52.40
65394;BME280;52002;49.760;6.512;2024-03-23T13:48:16;99577.27;;;11.72;52.87
65394;BME280;52002;49.760;6.512;2024-03-23T13:50:43;99576.80;;;11.79;52.58
65394;BME280;52002;49.760;6.512;2024-03-23T13:53:08;99571.96;;;11.93;51.71
65394;BME280;52002;49.760;6.512;2024-03-23T13:55:34;99567.89;;;12.04;51.35
65394;BME280;52002;49.760;6.512;2024-03-23T13:58:00;99572.41;;;12.03;50.94
65394;BME280;52002;49.760;6.512;2024-03-23T14:00:25;99580.70;;;11.98;50.44
65394;BME280;52002;49.760;6.512;2024-03-23T14:02:50;99582.12;;;11.93;50.48
65394;BME280;52002;49.760;6.512;2024-03-23T14:05:16;99581.79;;;11.84;50.69